Terminal Aerodrome Forecast
Issued by NWS

Home | Current Version | Previous Version | Text Only | Print | Product List | Glossary On
Versions: 1 2 3 4 5 6 7 8 9 10 11 12 13 14 15 16 17 18 19
000
FTUS44 KCRP 240711 AAA
TAFALI
TAF AMD
KALI 240711Z 2407/2506 15012KT P6SM -RA SCT015
      TEMPO 2407/2409 1SM -TSRA BR OVC015CB
     FM241300 17015G21KT P6SM VCSH BKN025 OVC150
     FM241900 16013KT P6SM SCT025 BKN035
     FM250300 16012KT P6SM SCT015=

USA.gov is the U.S. government's official web portal to all federal, state and local government web resources and services.